sensor_id;sensor_type;location;lat;lon;timestamp;P1;durP1;ratioP1;P2;durP2;ratioP2
12597;SDS011;6364;53.590;9.956;2023-01-29T00:00:46;40.03;;;20.98;;
12597;SDS011;6364;53.590;9.956;2023-01-29T00:03:12;46.22;;;22.45;;
12597;SDS011;6364;53.590;9.956;2023-01-29T00:05:37;40.85;;;20.83;;
12597;SDS011;6364;53.590;9.956;2023-01-29T00:08:02;41.83;;;21.55;;
12597;SDS011;6364;53.590;9.956;2023-01-29T00:10:28;41.90;;;20.77;;
12597;SDS011;6364;53.590;9.956;2023-01-29T00:12:53;39.88;;;20.33;;
12597;SDS011;6364;53.590;9.956;2023-01-29T00:15:19;37.42;;;20.15;;
12597;SDS011;6364;53.590;9.956;2023-01-29T00:17:44;42.72;;;20.75;;
12597;SDS011;6364;53.590;9.956;2023-01-29T00:20:10;38.33;;;19.20;;
12597;SDS011;6364;53.590;9.956;2023-01-29T00:22:35;37.92;;;19.02;;
12597;SDS011;6364;53.590;9.956;2023-01-29T00:25:01;36.92;;;18.88;;
12597;SDS011;6364;53.590;9.956;2023-01-29T00:27:26;37.15;;;19.65;;
12597;SDS011;6364;53.590;9.956;2023-01-29T00:29:51;42.28;;;20.00;;
12597;SDS011;6364;53.590;9.956;2023-01-29T00:32:35;37.28;;;19.48;;
12597;SDS011;6364;53.590;9.956;2023-01-29T00:35:01;42.67;;;19.27;;
12597;SDS011;6364;53.590;9.956;2023-01-29T00:37:26;39.10;;;18.33;;
12597;SDS011;6364;53.590;9.956;2023-01-29T00:39:51;39.90;;;19.50;;
12597;SDS011;6364;53.590;9.956;2023-01-29T00:42:17;39.42;;;18.25;;
12597;SDS011;6364;53.590;9.956;2023-01-29T00:45:01;39.50;;;18.77;;
12597;SDS011;6364;53.590;9.956;2023-01-29T00:47:26;38.15;;;19.48;;
12597;SDS011;6364;53.590;9.956;2023-01-29T00:49:54;39.40;;;17.88;;
12597;SDS011;6364;53.590;9.956;2023-01-29T00:52:20;36.70;;;16.30;;
12597;SDS011;6364;53.590;9.956;2023-01-29T00:54:48;34.88;;;18.35;;
12597;SDS011;6364;53.590;9.956;2023-01-29T00:57:14;38.92;;;17.00;;
12597;SDS011;6364;53.590;9.956;2023-01-29T00:59:40;39.60;;;17.08;;
12597;SDS011;6364;53.590;9.956;2023-01-29T01:02:06;35.45;;;17.67;;
12597;SDS011;6364;53.590;9.956;2023-01-29T01:07:15;37.25;;;16.83;;
12597;SDS011;6364;53.590;9.956;2023-01-29T01:09:40;39.70;;;16.77;;
12597;SDS011;6364;53.590;9.956;2023-01-29T01:12:24;32.95;;;16.63;;
12597;SDS011;6364;53.590;9.956;2023-01-29T01:14:49;36.40;;;16.83;;
12597;SDS011;6364;53.590;9.956;2023-01-29T01:17:15;39.30;;;16.17;;
12597;SDS011;6364;53.590;9.956;2023-01-29T01:19:40;41.03;;;18.67;;
12597;SDS011;6364;53.590;9.956;2023-01-29T01:22:06;39.40;;;16.77;;
12597;SDS011;6364;53.590;9.956;2023-01-29T01:24:31;40.60;;;18.52;;
12597;SDS011;6364;53.590;9.956;2023-01-29T01:26:57;38.78;;;17.70;;
12597;SDS011;6364;53.590;9.956;2023-01-29T01:29:22;38.33;;;17.27;;
12597;SDS011;6364;53.590;9.956;2023-01-29T01:31:48;40.13;;;18.35;;
12597;SDS011;6364;53.590;9.956;2023-01-29T01:34:14;36.58;;;17.77;;
12597;SDS011;6364;53.590;9.956;2023-01-29T01:36:39;38.90;;;18.23;;
12597;SDS011;6364;53.590;9.956;2023-01-29T01:39:04;36.88;;;17.30;;
12597;SDS011;6364;53.590;9.956;2023-01-29T01:41:30;40.38;;;17.77;;
12597;SDS011;6364;53.590;9.956;2023-01-29T01:43:59;37.67;;;18.10;;
12597;SDS011;6364;53.590;9.956;2023-01-29T01:46:29;38.97;;;18.33;;
12597;SDS011;6364;53.590;9.956;2023-01-29T01:49:11;38.55;;;18.02;;
12597;SDS011;6364;53.590;9.956;2023-01-29T01:51:43;37.95;;;18.98;;
12597;SDS011;6364;53.590;9.956;2023-01-29T01:54:32;36.72;;;19.13;;
12597;SDS011;6364;53.590;9.956;2023-01-29T01:56:58;41.42;;;18.58;;
12597;SDS011;6364;53.590;9.956;2023-01-29T01:59:33;34.60;;;17.77;;
12597;SDS011;6364;53.590;9.956;2023-01-29T02:02:00;45.03;;;18.17;;
12597;SDS011;6364;53.590;9.956;2023-01-29T02:04:45;38.42;;;18.60;;
12597;SDS011;6364;53.590;9.956;2023-01-29T02:07:30;36.20;;;18.08;;
12597;SDS011;6364;53.590;9.956;2023-01-29T02:12:39;34.00;;;16.90;;
12597;SDS011;6364;53.590;9.956;2023-01-29T02:15:05;37.80;;;18.13;;
12597;SDS011;6364;53.590;9.956;2023-01-29T02:17:31;42.53;;;18.30;;
12597;SDS011;6364;53.590;9.956;2023-01-29T02:28:30;42.20;;;18.23;;
12597;SDS011;6364;53.590;9.956;2023-01-29T02:36:11;36.15;;;17.63;;
12597;SDS011;6364;53.590;9.956;2023-01-29T02:39:03;41.75;;;19.23;;
12597;SDS011;6364;53.590;9.956;2023-01-29T02:41:41;39.30;;;18.73;;
12597;SDS011;6364;53.590;9.956;2023-01-29T02:44:25;44.63;;;18.15;;
12597;SDS011;6364;53.590;9.956;2023-01-29T02:46:59;41.28;;;19.77;;
12597;SDS011;6364;53.590;9.956;2023-01-29T02:52:08;40.45;;;19.98;;
12597;SDS011;6364;53.590;9.956;2023-01-29T02:54:50;41.00;;;17.67;;
12597;SDS011;6364;53.590;9.956;2023-01-29T02:57:20;39.20;;;18.75;;
12597;SDS011;6364;53.590;9.956;2023-01-29T03:02:23;43.15;;;19.23;;
12597;SDS011;6364;53.590;9.956;2023-01-29T03:04:54;38.33;;;18.67;;
12597;SDS011;6364;53.590;9.956;2023-01-29T03:07:24;41.67;;;19.15;;
12597;SDS011;6364;53.590;9.956;2023-01-29T03:10:10;43.47;;;19.42;;
12597;SDS011;6364;53.590;9.956;2023-01-29T03:12:40;36.30;;;17.52;;
12597;SDS011;6364;53.590;9.956;2023-01-29T03:15:10;37.05;;;18.08;;
12597;SDS011;6364;53.590;9.956;2023-01-29T03:17:43;39.13;;;17.83;;
12597;SDS011;6364;53.590;9.956;2023-01-29T03:20:14;40.70;;;18.85;;
12597;SDS011;6364;53.590;9.956;2023-01-29T03:22:43;43.55;;;18.70;;
12597;SDS011;6364;53.590;9.956;2023-01-29T03:25:10;41.25;;;19.17;;
12597;SDS011;6364;53.590;9.956;2023-01-29T03:27:57;40.45;;;19.38;;
12597;SDS011;6364;53.590;9.956;2023-01-29T03:30:49;42.75;;;19.58;;
12597;SDS011;6364;53.590;9.956;2023-01-29T03:33:43;35.95;;;17.75;;
12597;SDS011;6364;53.590;9.956;2023-01-29T03:36:14;42.05;;;18.30;;
12597;SDS011;6364;53.590;9.956;2023-01-29T03:38:42;37.22;;;18.67;;
12597;SDS011;6364;53.590;9.956;2023-01-29T03:41:09;37.78;;;18.23;;
12597;SDS011;6364;53.590;9.956;2023-01-29T03:46:17;33.45;;;17.52;;
12597;SDS011;6364;53.590;9.956;2023-01-29T03:48:55;37.15;;;18.05;;
12597;SDS011;6364;53.590;9.956;2023-01-29T03:59:47;38.13;;;18.05;;
12597;SDS011;6364;53.590;9.956;2023-01-29T04:02:18;37.03;;;17.00;;
12597;SDS011;6364;53.590;9.956;2023-01-29T04:04:46;38.85;;;17.40;;
12597;SDS011;6364;53.590;9.956;2023-01-29T04:07:15;37.28;;;18.48;;
12597;SDS011;6364;53.590;9.956;2023-01-29T04:09:46;37.90;;;17.80;;
12597;SDS011;6364;53.590;9.956;2023-01-29T04:12:15;31.98;;;16.50;;
12597;SDS011;6364;53.590;9.956;2023-01-29T04:14:44;35.00;;;17.95;;
12597;SDS011;6364;53.590;9.956;2023-01-29T04:17:14;35.58;;;17.42;;
12597;SDS011;6364;53.590;9.956;2023-01-29T04:19:42;38.05;;;17.65;;
12597;SDS011;6364;53.590;9.956;2023-01-29T04:22:12;37.08;;;17.75;;
12597;SDS011;6364;53.590;9.956;2023-01-29T04:24:41;37.47;;;16.90;;
12597;SDS011;6364;53.590;9.956;2023-01-29T04:27:25;36.92;;;17.52;;
12597;SDS011;6364;53.590;9.956;2023-01-29T04:37:45;38.08;;;18.60;;
12597;SDS011;6364;53.590;9.956;2023-01-29T04:40:19;36.55;;;17.13;;
12597;SDS011;6364;53.590;9.956;2023-01-29T04:45:56;35.92;;;17.45;;
12597;SDS011;6364;53.590;9.956;2023-01-29T04:57:20;38.67;;;18.27;;
12597;SDS011;6364;53.590;9.956;2023-01-29T05:02:20;43.47;;;19.25;;
12597;SDS011;6364;53.590;9.956;2023-01-29T05:04:46;39.40;;;18.17;;
12597;SDS011;6364;53.590;9.956;2023-01-29T05:07:13;41.63;;;19.65;;
12597;SDS011;6364;53.590;9.956;2023-01-29T05:09:39;41.60;;;19.17;;
12597;SDS011;6364;53.590;9.956;2023-01-29T05:12:06;39.10;;;19.63;;
12597;SDS011;6364;53.590;9.956;2023-01-29T05:14:33;49.75;;;19.83;;
12597;SDS011;6364;53.590;9.956;2023-01-29T05:16:59;42.05;;;18.88;;
12597;SDS011;6364;53.590;9.956;2023-01-29T05:19:27;41.42;;;19.10;;
12597;SDS011;6364;53.590;9.956;2023-01-29T05:21:53;41.03;;;18.90;;
12597;SDS011;6364;53.590;9.956;2023-01-29T05:24:19;40.97;;;18.95;;
12597;SDS011;6364;53.590;9.956;2023-01-29T05:26:47;45.78;;;20.02;;
12597;SDS011;6364;53.590;9.956;2023-01-29T05:29:32;42.33;;;19.08;;
12597;SDS011;6364;53.590;9.956;2023-01-29T05:31:57;45.28;;;19.27;;
12597;SDS011;6364;53.590;9.956;2023-01-29T05:34:22;46.13;;;18.85;;
12597;SDS011;6364;53.590;9.956;2023-01-29T05:36:48;47.10;;;19.63;;
12597;SDS011;6364;53.590;9.956;2023-01-29T05:39:13;41.67;;;18.63;;
12597;SDS011;6364;53.590;9.956;2023-01-29T05:41:39;43.00;;;18.90;;
12597;SDS011;6364;53.590;9.956;2023-01-29T05:44:04;42.90;;;19.50;;
12597;SDS011;6364;53.590;9.956;2023-01-29T05:46:29;46.30;;;19.98;;
12597;SDS011;6364;53.590;9.956;2023-01-29T05:48:55;47.08;;;18.70;;
12597;SDS011;6364;53.590;9.956;2023-01-29T05:51:20;45.15;;;19.50;;
12597;SDS011;6364;53.590;9.956;2023-01-29T05:53:45;39.63;;;18.63;;
12597;SDS011;6364;53.590;9.956;2023-01-29T05:56:11;48.80;;;19.90;;
12597;SDS011;6364;53.590;9.956;2023-01-29T05:58:36;46.00;;;19.50;;
12597;SDS011;6364;53.590;9.956;2023-01-29T06:01:12;45.85;;;21.10;;
12597;SDS011;6364;53.590;9.956;2023-01-29T06:03:39;45.92;;;20.10;;
12597;SDS011;6364;53.590;9.956;2023-01-29T06:06:04;50.95;;;20.42;;
12597;SDS011;6364;53.590;9.956;2023-01-29T06:08:30;45.40;;;20.02;;
12597;SDS011;6364;53.590;9.956;2023-01-29T06:10:55;51.75;;;20.58;;
12597;SDS011;6364;53.590;9.956;2023-01-29T06:13:21;48.95;;;19.65;;
12597;SDS011;6364;53.590;9.956;2023-01-29T06:15:46;52.60;;;20.60;;
12597;SDS011;6364;53.590;9.956;2023-01-29T06:18:11;49.53;;;20.38;;
12597;SDS011;6364;53.590;9.956;2023-01-29T06:20:36;45.88;;;19.70;;
12597;SDS011;6364;53.590;9.956;2023-01-29T06:23:02;52.60;;;21.02;;
12597;SDS011;6364;53.590;9.956;2023-01-29T06:25:27;49.10;;;20.38;;
12597;SDS011;6364;53.590;9.956;2023-01-29T06:27:52;56.13;;;21.85;;
12597;SDS011;6364;53.590;9.956;2023-01-29T06:30:18;47.03;;;20.08;;
12597;SDS011;6364;53.590;9.956;2023-01-29T06:32:43;49.78;;;20.75;;
12597;SDS011;6364;53.590;9.956;2023-01-29T06:35:08;52.10;;;20.50;;
12597;SDS011;6364;53.590;9.956;2023-01-29T06:37:34;50.83;;;20.85;;
12597;SDS011;6364;53.590;9.956;2023-01-29T06:40:00;42.30;;;18.65;;
12597;SDS011;6364;53.590;9.956;2023-01-29T06:42:25;47.85;;;19.40;;
12597;SDS011;6364;53.590;9.956;2023-01-29T06:44:52;49.03;;;18.90;;
12597;SDS011;6364;53.590;9.956;2023-01-29T06:47:20;43.40;;;18.95;;
12597;SDS011;6364;53.590;9.956;2023-01-29T06:49:46;48.35;;;19.60;;
12597;SDS011;6364;53.590;9.956;2023-01-29T06:52:12;48.50;;;20.48;;
12597;SDS011;6364;53.590;9.956;2023-01-29T06:54:37;45.70;;;20.00;;
12597;SDS011;6364;53.590;9.956;2023-01-29T06:57:02;47.75;;;20.85;;
12597;SDS011;6364;53.590;9.956;2023-01-29T06:59:28;48.95;;;20.52;;
12597;SDS011;6364;53.590;9.956;2023-01-29T07:01:53;46.85;;;19.75;;
12597;SDS011;6364;53.590;9.956;2023-01-29T07:04:18;49.28;;;21.60;;
12597;SDS011;6364;53.590;9.956;2023-01-29T07:06:43;55.83;;;22.75;;
12597;SDS011;6364;53.590;9.956;2023-01-29T07:09:10;48.40;;;21.60;;
12597;SDS011;6364;53.590;9.956;2023-01-29T07:11:38;51.25;;;21.75;;
12597;SDS011;6364;53.590;9.956;2023-01-29T07:14:04;54.17;;;22.83;;
12597;SDS011;6364;53.590;9.956;2023-01-29T07:16:29;51.47;;;21.50;;
12597;SDS011;6364;53.590;9.956;2023-01-29T07:18:54;53.10;;;21.98;;
12597;SDS011;6364;53.590;9.956;2023-01-29T07:21:20;50.30;;;21.77;;
12597;SDS011;6364;53.590;9.956;2023-01-29T07:23:45;54.90;;;22.33;;
12597;SDS011;6364;53.590;9.956;2023-01-29T07:26:10;55.42;;;22.35;;
12597;SDS011;6364;53.590;9.956;2023-01-29T07:28:36;56.25;;;23.60;;
12597;SDS011;6364;53.590;9.956;2023-01-29T07:31:02;55.90;;;24.33;;
12597;SDS011;6364;53.590;9.956;2023-01-29T07:33:28;54.00;;;23.35;;
12597;SDS011;6364;53.590;9.956;2023-01-29T07:35:53;57.13;;;23.60;;
12597;SDS011;6364;53.590;9.956;2023-01-29T07:38:18;54.90;;;24.13;;
12597;SDS011;6364;53.590;9.956;2023-01-29T07:40:44;51.50;;;24.48;;
12597;SDS011;6364;53.590;9.956;2023-01-29T07:43:09;55.70;;;24.27;;
12597;SDS011;6364;53.590;9.956;2023-01-29T07:45:35;55.03;;;22.63;;
12597;SDS011;6364;53.590;9.956;2023-01-29T07:48:02;54.60;;;24.38;;
12597;SDS011;6364;53.590;9.956;2023-01-29T07:50:29;50.60;;;24.42;;
12597;SDS011;6364;53.590;9.956;2023-01-29T07:52:54;56.85;;;26.40;;
12597;SDS011;6364;53.590;9.956;2023-01-29T07:55:20;56.45;;;23.30;;
12597;SDS011;6364;53.590;9.956;2023-01-29T07:57:45;51.35;;;23.50;;
12597;SDS011;6364;53.590;9.956;2023-01-29T08:00:11;56.25;;;24.92;;
12597;SDS011;6364;53.590;9.956;2023-01-29T08:02:37;52.35;;;23.20;;
12597;SDS011;6364;53.590;9.956;2023-01-29T08:05:03;56.15;;;25.25;;
12597;SDS011;6364;53.590;9.956;2023-01-29T08:07:29;52.28;;;25.92;;
12597;SDS011;6364;53.590;9.956;2023-01-29T08:09:54;47.65;;;23.27;;
12597;SDS011;6364;53.590;9.956;2023-01-29T08:12:19;53.15;;;24.45;;
12597;SDS011;6364;53.590;9.956;2023-01-29T08:14:44;52.20;;;25.45;;
12597;SDS011;6364;53.590;9.956;2023-01-29T08:17:10;62.00;;;26.48;;
12597;SDS011;6364;53.590;9.956;2023-01-29T08:19:36;54.10;;;26.98;;
12597;SDS011;6364;53.590;9.956;2023-01-29T08:22:02;56.05;;;26.02;;
12597;SDS011;6364;53.590;9.956;2023-01-29T08:24:28;55.10;;;26.02;;
12597;SDS011;6364;53.590;9.956;2023-01-29T08:26:53;61.63;;;23.55;;
12597;SDS011;6364;53.590;9.956;2023-01-29T08:29:19;51.60;;;26.73;;
12597;SDS011;6364;53.590;9.956;2023-01-29T08:31:44;50.90;;;26.92;;
12597;SDS011;6364;53.590;9.956;2023-01-29T08:34:10;58.33;;;28.73;;
12597;SDS011;6364;53.590;9.956;2023-01-29T08:36:35;57.38;;;28.05;;
12597;SDS011;6364;53.590;9.956;2023-01-29T08:39:00;58.22;;;28.90;;
12597;SDS011;6364;53.590;9.956;2023-01-29T08:41:26;58.85;;;28.58;;
12597;SDS011;6364;53.590;9.956;2023-01-29T08:43:51;58.03;;;28.30;;
12597;SDS011;6364;53.590;9.956;2023-01-29T08:46:16;57.63;;;27.63;;
12597;SDS011;6364;53.590;9.956;2023-01-29T08:48:41;60.42;;;28.80;;
12597;SDS011;6364;53.590;9.956;2023-01-29T08:51:07;63.33;;;30.17;;
12597;SDS011;6364;53.590;9.956;2023-01-29T08:53:32;57.50;;;29.63;;
12597;SDS011;6364;53.590;9.956;2023-01-29T08:55:58;64.32;;;30.90;;
12597;SDS011;6364;53.590;9.956;2023-01-29T08:58:23;56.92;;;29.77;;
12597;SDS011;6364;53.590;9.956;2023-01-29T09:00:48;57.15;;;30.88;;
12597;SDS011;6364;53.590;9.956;2023-01-29T09:03:14;58.03;;;30.40;;
12597;SDS011;6364;53.590;9.956;2023-01-29T09:05:40;64.47;;;31.20;;
12597;SDS011;6364;53.590;9.956;2023-01-29T09:08:06;66.63;;;31.85;;
12597;SDS011;6364;53.590;9.956;2023-01-29T09:10:32;63.55;;;33.58;;
12597;SDS011;6364;53.590;9.956;2023-01-29T09:12:57;64.90;;;32.10;;
12597;SDS011;6364;53.590;9.956;2023-01-29T09:15:23;67.07;;;33.75;;
12597;SDS011;6364;53.590;9.956;2023-01-29T09:17:48;70.20;;;33.47;;
12597;SDS011;6364;53.590;9.956;2023-01-29T09:20:13;67.38;;;33.92;;
12597;SDS011;6364;53.590;9.956;2023-01-29T09:22:39;75.43;;;35.25;;
12597;SDS011;6364;53.590;9.956;2023-01-29T09:25:05;66.30;;;33.95;;
12597;SDS011;6364;53.590;9.956;2023-01-29T09:27:31;69.28;;;35.22;;
12597;SDS011;6364;53.590;9.956;2023-01-29T09:29:56;67.47;;;35.10;;
12597;SDS011;6364;53.590;9.956;2023-01-29T09:32:21;66.50;;;33.38;;
12597;SDS011;6364;53.590;9.956;2023-01-29T09:34:47;68.70;;;34.00;;
12597;SDS011;6364;53.590;9.956;2023-01-29T09:37:12;66.75;;;33.72;;
12597;SDS011;6364;53.590;9.956;2023-01-29T09:39:37;68.47;;;33.30;;
12597;SDS011;6364;53.590;9.956;2023-01-29T09:42:15;70.03;;;34.38;;
12597;SDS011;6364;53.590;9.956;2023-01-29T09:45:02;70.05;;;34.00;;
12597;SDS011;6364;53.590;9.956;2023-01-29T09:47:29;72.40;;;33.55;;
12597;SDS011;6364;53.590;9.956;2023-01-29T09:49:58;71.88;;;36.28;;
12597;SDS011;6364;53.590;9.956;2023-01-29T09:52:29;73.53;;;35.08;;
12597;SDS011;6364;53.590;9.956;2023-01-29T09:57:48;68.53;;;34.00;;
12597;SDS011;6364;53.590;9.956;2023-01-29T10:00:21;71.07;;;35.15;;
12597;SDS011;6364;53.590;9.956;2023-01-29T10:03:03;69.07;;;35.45;;
12597;SDS011;6364;53.590;9.956;2023-01-29T10:06:04;71.63;;;34.47;;
12597;SDS011;6364;53.590;9.956;2023-01-29T10:11:36;63.72;;;33.22;;
12597;SDS011;6364;53.590;9.956;2023-01-29T10:14:12;73.82;;;35.17;;
12597;SDS011;6364;53.590;9.956;2023-01-29T10:19:20;57.53;;;28.88;;
12597;SDS011;6364;53.590;9.956;2023-01-29T10:24:36;68.53;;;32.97;;
12597;SDS011;6364;53.590;9.956;2023-01-29T10:27:08;65.45;;;33.58;;
12597;SDS011;6364;53.590;9.956;2023-01-29T10:29:40;74.07;;;36.50;;
12597;SDS011;6364;53.590;9.956;2023-01-29T10:32:07;78.85;;;37.65;;
12597;SDS011;6364;53.590;9.956;2023-01-29T10:34:40;69.60;;;34.63;;
12597;SDS011;6364;53.590;9.956;2023-01-29T10:37:18;72.30;;;37.60;;
12597;SDS011;6364;53.590;9.956;2023-01-29T10:39:47;70.07;;;35.15;;
12597;SDS011;6364;53.590;9.956;2023-01-29T10:50:42;72.38;;;36.05;;
12597;SDS011;6364;53.590;9.956;2023-01-29T10:53:21;72.53;;;37.03;;
12597;SDS011;6364;53.590;9.956;2023-01-29T10:58:58;79.20;;;38.92;;
12597;SDS011;6364;53.590;9.956;2023-01-29T11:01:25;78.72;;;38.22;;
12597;SDS011;6364;53.590;9.956;2023-01-29T11:03:58;79.43;;;40.70;;
12597;SDS011;6364;53.590;9.956;2023-01-29T11:06:32;77.05;;;37.70;;
12597;SDS011;6364;53.590;9.956;2023-01-29T11:11:49;76.88;;;40.15;;
12597;SDS011;6364;53.590;9.956;2023-01-29T11:14:23;77.65;;;39.75;;
12597;SDS011;6364;53.590;9.956;2023-01-29T11:16:51;80.85;;;41.33;;
12597;SDS011;6364;53.590;9.956;2023-01-29T11:19:16;81.38;;;39.33;;
12597;SDS011;6364;53.590;9.956;2023-01-29T11:21:55;73.47;;;37.80;;
12597;SDS011;6364;53.590;9.956;2023-01-29T11:24:22;78.32;;;40.20;;
12597;SDS011;6364;53.590;9.956;2023-01-29T11:26:48;65.38;;;34.33;;
12597;SDS011;6364;53.590;9.956;2023-01-29T11:29:28;68.70;;;35.70;;
12597;SDS011;6364;53.590;9.956;2023-01-29T11:31:56;75.85;;;37.83;;
12597;SDS011;6364;53.590;9.956;2023-01-29T11:34:23;75.50;;;37.58;;
12597;SDS011;6364;53.590;9.956;2023-01-29T11:37:01;68.47;;;35.80;;
12597;SDS011;6364;53.590;9.956;2023-01-29T11:39:29;64.80;;;34.05;;
12597;SDS011;6364;53.590;9.956;2023-01-29T11:41:56;60.65;;;34.13;;
12597;SDS011;6364;53.590;9.956;2023-01-29T11:46:52;65.05;;;34.28;;
12597;SDS011;6364;53.590;9.956;2023-01-29T11:49:31;62.35;;;32.03;;
12597;SDS011;6364;53.590;9.956;2023-01-29T11:51:58;61.53;;;32.70;;
12597;SDS011;6364;53.590;9.956;2023-01-29T11:54:27;62.75;;;33.35;;
12597;SDS011;6364;53.590;9.956;2023-01-29T11:56:57;62.58;;;32.85;;
12597;SDS011;6364;53.590;9.956;2023-01-29T11:59:40;59.45;;;33.22;;
12597;SDS011;6364;53.590;9.956;2023-01-29T12:04:50;50.97;;;29.48;;
12597;SDS011;6364;53.590;9.956;2023-01-29T12:07:17;48.30;;;27.80;;
12597;SDS011;6364;53.590;9.956;2023-01-29T12:09:52;46.85;;;28.17;;
12597;SDS011;6364;53.590;9.956;2023-01-29T12:15:09;49.78;;;28.70;;
12597;SDS011;6364;53.590;9.956;2023-01-29T12:17:40;51.00;;;28.23;;
12597;SDS011;6364;53.590;9.956;2023-01-29T12:20:12;49.65;;;29.13;;
12597;SDS011;6364;53.590;9.956;2023-01-29T12:27:59;53.45;;;28.38;;
12597;SDS011;6364;53.590;9.956;2023-01-29T12:30:30;50.78;;;29.55;;
12597;SDS011;6364;53.590;9.956;2023-01-29T12:35:57;54.17;;;28.45;;
12597;SDS011;6364;53.590;9.956;2023-01-29T12:38:29;54.00;;;29.95;;
12597;SDS011;6364;53.590;9.956;2023-01-29T12:40:59;61.70;;;30.75;;
12597;SDS011;6364;53.590;9.956;2023-01-29T12:43:34;54.45;;;30.65;;
12597;SDS011;6364;53.590;9.956;2023-01-29T12:48:29;47.03;;;27.95;;
12597;SDS011;6364;53.590;9.956;2023-01-29T12:51:05;55.97;;;30.85;;
12597;SDS011;6364;53.590;9.956;2023-01-29T12:54:15;57.85;;;31.40;;
12597;SDS011;6364;53.590;9.956;2023-01-29T12:56:28;57.85;;;30.55;;
12597;SDS011;6364;53.590;9.956;2023-01-29T12:58:57;57.53;;;31.35;;
12597;SDS011;6364;53.590;9.956;2023-01-29T13:01:30;56.47;;;29.63;;
12597;SDS011;6364;53.590;9.956;2023-01-29T13:04:19;55.00;;;29.02;;
12597;SDS011;6364;53.590;9.956;2023-01-29T13:06:50;50.63;;;29.45;;
12597;SDS011;6364;53.590;9.956;2023-01-29T13:09:20;55.15;;;29.75;;
12597;SDS011;6364;53.590;9.956;2023-01-29T13:11:55;54.53;;;28.85;;
12597;SDS011;6364;53.590;9.956;2023-01-29T13:17:25;50.85;;;27.88;;
12597;SDS011;6364;53.590;9.956;2023-01-29T13:19:58;53.45;;;29.98;;
12597;SDS011;6364;53.590;9.956;2023-01-29T13:22:28;56.13;;;31.08;;
12597;SDS011;6364;53.590;9.956;2023-01-29T13:24:57;56.15;;;30.27;;
12597;SDS011;6364;53.590;9.956;2023-01-29T13:27:32;53.88;;;29.50;;
12597;SDS011;6364;53.590;9.956;2023-01-29T13:29:59;52.53;;;30.13;;
12597;SDS011;6364;53.590;9.956;2023-01-29T13:32:26;53.10;;;28.88;;
12597;SDS011;6364;53.590;9.956;2023-01-29T13:34:53;58.85;;;29.73;;
12597;SDS011;6364;53.590;9.956;2023-01-29T13:37:25;49.40;;;29.48;;
12597;SDS011;6364;53.590;9.956;2023-01-29T13:39:52;49.65;;;29.73;;
12597;SDS011;6364;53.590;9.956;2023-01-29T13:44:56;51.95;;;29.33;;
12597;SDS011;6364;53.590;9.956;2023-01-29T13:47:27;51.65;;;28.63;;
12597;SDS011;6364;53.590;9.956;2023-01-29T13:50:04;49.70;;;29.42;;
12597;SDS011;6364;53.590;9.956;2023-01-29T13:52:38;47.97;;;28.10;;
12597;SDS011;6364;53.590;9.956;2023-01-29T14:07:53;48.80;;;29.17;;
12597;SDS011;6364;53.590;9.956;2023-01-29T14:10:20;51.50;;;28.95;;
12597;SDS011;6364;53.590;9.956;2023-01-29T14:12:48;55.58;;;31.33;;
12597;SDS011;6364;53.590;9.956;2023-01-29T14:15:22;59.38;;;31.85;;
12597;SDS011;6364;53.590;9.956;2023-01-29T14:17:56;53.00;;;30.45;;
12597;SDS011;6364;53.590;9.956;2023-01-29T14:20:29;60.30;;;31.92;;
12597;SDS011;6364;53.590;9.956;2023-01-29T14:22:57;56.42;;;30.42;;
12597;SDS011;6364;53.590;9.956;2023-01-29T14:25:27;58.83;;;32.47;;
12597;SDS011;6364;53.590;9.956;2023-01-29T14:27:55;54.80;;;31.35;;
12597;SDS011;6364;53.590;9.956;2023-01-29T14:30:21;57.85;;;32.08;;
12597;SDS011;6364;53.590;9.956;2023-01-29T14:32:48;61.80;;;30.60;;
12597;SDS011;6364;53.590;9.956;2023-01-29T14:37:43;54.40;;;30.65;;
12597;SDS011;6364;53.590;9.956;2023-01-29T14:42:44;60.50;;;33.33;;
12597;SDS011;6364;53.590;9.956;2023-01-29T14:45:21;60.95;;;33.58;;
12597;SDS011;6364;53.590;9.956;2023-01-29T14:48:01;58.15;;;32.65;;
12597;SDS011;6364;53.590;9.956;2023-01-29T14:50:47;58.95;;;31.90;;
12597;SDS011;6364;53.590;9.956;2023-01-29T14:53:29;64.22;;;32.85;;
12597;SDS011;6364;53.590;9.956;2023-01-29T14:56:00;49.97;;;30.10;;
12597;SDS011;6364;53.590;9.956;2023-01-29T14:58:33;64.85;;;33.22;;
12597;SDS011;6364;53.590;9.956;2023-01-29T15:01:00;61.03;;;32.80;;
12597;SDS011;6364;53.590;9.956;2023-01-29T15:03:40;56.85;;;31.55;;
12597;SDS011;6364;53.590;9.956;2023-01-29T15:06:08;60.00;;;31.92;;
12597;SDS011;6364;53.590;9.956;2023-01-29T15:08:40;61.70;;;32.25;;
12597;SDS011;6364;53.590;9.956;2023-01-29T15:11:14;59.13;;;31.35;;
12597;SDS011;6364;53.590;9.956;2023-01-29T15:19:43;62.08;;;32.83;;
12597;SDS011;6364;53.590;9.956;2023-01-29T15:24:37;64.05;;;32.78;;
12597;SDS011;6364;53.590;9.956;2023-01-29T15:27:04;60.88;;;34.20;;
12597;SDS011;6364;53.590;9.956;2023-01-29T15:29:37;64.90;;;32.95;;
12597;SDS011;6364;53.590;9.956;2023-01-29T15:32:03;65.15;;;34.72;;
12597;SDS011;6364;53.590;9.956;2023-01-29T15:34:29;65.90;;;34.70;;
12597;SDS011;6364;53.590;9.956;2023-01-29T15:36:54;67.75;;;36.72;;
12597;SDS011;6364;53.590;9.956;2023-01-29T15:39:21;67.57;;;36.40;;
12597;SDS011;6364;53.590;9.956;2023-01-29T15:41:47;67.55;;;36.80;;
12597;SDS011;6364;53.590;9.956;2023-01-29T15:44:14;68.30;;;34.10;;
12597;SDS011;6364;53.590;9.956;2023-01-29T15:46:41;63.65;;;34.35;;
12597;SDS011;6364;53.590;9.956;2023-01-29T15:49:08;65.10;;;36.13;;
12597;SDS011;6364;53.590;9.956;2023-01-29T15:51:37;70.32;;;36.97;;
12597;SDS011;6364;53.590;9.956;2023-01-29T15:54:04;72.95;;;37.00;;
12597;SDS011;6364;53.590;9.956;2023-01-29T15:56:35;65.55;;;35.08;;
12597;SDS011;6364;53.590;9.956;2023-01-29T15:59:03;71.70;;;35.95;;
12597;SDS011;6364;53.590;9.956;2023-01-29T16:01:30;68.38;;;37.10;;
12597;SDS011;6364;53.590;9.956;2023-01-29T16:03:56;73.45;;;36.92;;
12597;SDS011;6364;53.590;9.956;2023-01-29T16:06:25;60.00;;;32.45;;
12597;SDS011;6364;53.590;9.956;2023-01-29T16:08:51;70.05;;;36.47;;
12597;SDS011;6364;53.590;9.956;2023-01-29T16:11:18;66.75;;;33.75;;
12597;SDS011;6364;53.590;9.956;2023-01-29T16:13:43;74.78;;;37.20;;
12597;SDS011;6364;53.590;9.956;2023-01-29T16:18:39;57.55;;;28.58;;
12597;SDS011;6364;53.590;9.956;2023-01-29T16:21:31;66.05;;;35.70;;
12597;SDS011;6364;53.590;9.956;2023-01-29T16:24:00;56.58;;;31.00;;
12597;SDS011;6364;53.590;9.956;2023-01-29T16:26:28;60.53;;;32.40;;
12597;SDS011;6364;53.590;9.956;2023-01-29T16:28:55;58.28;;;32.63;;
12597;SDS011;6364;53.590;9.956;2023-01-29T16:31:24;70.28;;;36.15;;
12597;SDS011;6364;53.590;9.956;2023-01-29T16:33:51;57.25;;;31.20;;
12597;SDS011;6364;53.590;9.956;2023-01-29T16:36:18;60.75;;;33.65;;
12597;SDS011;6364;53.590;9.956;2023-01-29T16:38:46;62.92;;;33.85;;
12597;SDS011;6364;53.590;9.956;2023-01-29T16:43:47;61.35;;;32.38;;
12597;SDS011;6364;53.590;9.956;2023-01-29T16:48:57;61.38;;;33.00;;
12597;SDS011;6364;53.590;9.956;2023-01-29T16:51:24;58.92;;;31.75;;
12597;SDS011;6364;53.590;9.956;2023-01-29T16:56:32;57.72;;;32.22;;
12597;SDS011;6364;53.590;9.956;2023-01-29T16:58:58;63.65;;;33.08;;
12597;SDS011;6364;53.590;9.956;2023-01-29T17:01:25;59.72;;;33.00;;
12597;SDS011;6364;53.590;9.956;2023-01-29T17:04:10;61.22;;;31.15;;
12597;SDS011;6364;53.590;9.956;2023-01-29T17:06:38;59.78;;;32.60;;
12597;SDS011;6364;53.590;9.956;2023-01-29T17:09:06;63.78;;;33.22;;